sensor_id;sensor_type;location;lat;lon;timestamp;P1;durP1;ratioP1;P2;durP2;ratioP2
4742;SDS011;24293;48.154;7.748;2023-01-08T00:02:20;11.07;;;6.73;;
4742;SDS011;24293;48.154;7.748;2023-01-08T00:04:46;12.30;;;7.07;;
4742;SDS011;24293;48.154;7.748;2023-01-08T00:07:14;10.27;;;6.93;;
4742;SDS011;24293;48.154;7.748;2023-01-08T00:09:41;9.63;;;6.77;;
4742;SDS011;24293;48.154;7.748;2023-01-08T00:12:07;12.47;;;7.37;;
4742;SDS011;24293;48.154;7.748;2023-01-08T00:14:34;11.50;;;7.00;;
4742;SDS011;24293;48.154;7.748;2023-01-08T00:17:00;11.27;;;6.70;;
4742;SDS011;24293;48.154;7.748;2023-01-08T00:19:28;18.03;;;7.13;;
4742;SDS011;24293;48.154;7.748;2023-01-08T00:21:55;11.27;;;6.97;;
4742;SDS011;24293;48.154;7.748;2023-01-08T00:24:23;15.17;;;6.70;;
4742;SDS011;24293;48.154;7.748;2023-01-08T00:26:49;11.03;;;6.50;;
4742;SDS011;24293;48.154;7.748;2023-01-08T00:29:16;10.70;;;6.87;;
4742;SDS011;24293;48.154;7.748;2023-01-08T00:31:42;13.03;;;6.60;;
4742;SDS011;24293;48.154;7.748;2023-01-08T00:34:09;9.90;;;6.47;;
4742;SDS011;24293;48.154;7.748;2023-01-08T00:36:35;12.97;;;7.10;;
4742;SDS011;24293;48.154;7.748;2023-01-08T00:39:02;10.67;;;6.00;;
4742;SDS011;24293;48.154;7.748;2023-01-08T00:41:30;12.33;;;6.70;;
4742;SDS011;24293;48.154;7.748;2023-01-08T00:43:56;10.73;;;6.60;;
4742;SDS011;24293;48.154;7.748;2023-01-08T00:46:23;10.97;;;6.77;;
4742;SDS011;24293;48.154;7.748;2023-01-08T00:48:49;9.50;;;6.03;;
4742;SDS011;24293;48.154;7.748;2023-01-08T00:51:16;12.97;;;7.20;;
4742;SDS011;24293;48.154;7.748;2023-01-08T00:53:43;9.77;;;6.57;;
4742;SDS011;24293;48.154;7.748;2023-01-08T00:56:09;12.53;;;6.40;;
4742;SDS011;24293;48.154;7.748;2023-01-08T00:58:37;11.20;;;6.43;;
4742;SDS011;24293;48.154;7.748;2023-01-08T01:01:07;11.43;;;6.57;;
4742;SDS011;24293;48.154;7.748;2023-01-08T01:03:34;14.07;;;6.60;;
4742;SDS011;24293;48.154;7.748;2023-01-08T01:06:01;11.27;;;6.37;;
4742;SDS011;24293;48.154;7.748;2023-01-08T01:08:27;18.80;;;6.43;;
4742;SDS011;24293;48.154;7.748;2023-01-08T01:10:54;8.60;;;6.00;;
4742;SDS011;24293;48.154;7.748;2023-01-08T01:13:20;13.20;;;6.40;;
4742;SDS011;24293;48.154;7.748;2023-01-08T01:15:56;11.50;;;6.40;;
4742;SDS011;24293;48.154;7.748;2023-01-08T01:18:23;9.70;;;6.17;;
4742;SDS011;24293;48.154;7.748;2023-01-08T01:21:00;9.70;;;6.20;;
4742;SDS011;24293;48.154;7.748;2023-01-08T01:23:29;13.67;;;6.53;;
4742;SDS011;24293;48.154;7.748;2023-01-08T01:25:56;9.50;;;5.97;;
4742;SDS011;24293;48.154;7.748;2023-01-08T01:28:22;12.50;;;6.13;;
4742;SDS011;24293;48.154;7.748;2023-01-08T01:30:52;11.93;;;6.00;;
4742;SDS011;24293;48.154;7.748;2023-01-08T01:33:20;11.60;;;5.43;;
4742;SDS011;24293;48.154;7.748;2023-01-08T01:35:47;11.23;;;6.70;;
4742;SDS011;24293;48.154;7.748;2023-01-08T01:38:14;10.10;;;5.63;;
4742;SDS011;24293;48.154;7.748;2023-01-08T01:40:40;10.20;;;6.50;;
4742;SDS011;24293;48.154;7.748;2023-01-08T01:43:08;7.77;;;5.37;;
4742;SDS011;24293;48.154;7.748;2023-01-08T01:45:35;7.37;;;5.17;;
4742;SDS011;24293;48.154;7.748;2023-01-08T01:48:02;8.30;;;5.00;;
4742;SDS011;24293;48.154;7.748;2023-01-08T01:50:34;10.90;;;5.70;;
4742;SDS011;24293;48.154;7.748;2023-01-08T01:53:04;14.90;;;5.40;;
4742;SDS011;24293;48.154;7.748;2023-01-08T01:55:32;7.90;;;5.43;;
4742;SDS011;24293;48.154;7.748;2023-01-08T01:58:00;9.83;;;4.83;;
4742;SDS011;24293;48.154;7.748;2023-01-08T02:00:28;7.47;;;4.73;;
4742;SDS011;24293;48.154;7.748;2023-01-08T02:02:55;10.67;;;5.80;;
4742;SDS011;24293;48.154;7.748;2023-01-08T02:05:22;7.93;;;4.53;;
4742;SDS011;24293;48.154;7.748;2023-01-08T02:07:53;8.80;;;4.70;;
4742;SDS011;24293;48.154;7.748;2023-01-08T02:10:31;8.67;;;5.00;;
4742;SDS011;24293;48.154;7.748;2023-01-08T02:13:02;7.80;;;5.17;;
4742;SDS011;24293;48.154;7.748;2023-01-08T02:15:31;7.70;;;4.47;;
4742;SDS011;24293;48.154;7.748;2023-01-08T02:18:01;7.90;;;5.20;;
4742;SDS011;24293;48.154;7.748;2023-01-08T02:20:31;6.70;;;4.47;;
4742;SDS011;24293;48.154;7.748;2023-01-08T02:23:07;9.63;;;5.20;;
4742;SDS011;24293;48.154;7.748;2023-01-08T02:25:37;7.20;;;4.47;;
4742;SDS011;24293;48.154;7.748;2023-01-08T02:28:08;10.60;;;4.97;;
4742;SDS011;24293;48.154;7.748;2023-01-08T02:30:36;9.10;;;4.50;;
4742;SDS011;24293;48.154;7.748;2023-01-08T02:33:02;7.13;;;4.30;;
4742;SDS011;24293;48.154;7.748;2023-01-08T02:35:32;7.57;;;4.17;;
4742;SDS011;24293;48.154;7.748;2023-01-08T02:38:00;7.97;;;4.83;;
4742;SDS011;24293;48.154;7.748;2023-01-08T02:40:28;6.20;;;4.67;;
4742;SDS011;24293;48.154;7.748;2023-01-08T02:42:56;11.83;;;4.07;;
4742;SDS011;24293;48.154;7.748;2023-01-08T02:45:27;7.20;;;4.17;;
4742;SDS011;24293;48.154;7.748;2023-01-08T02:47:58;5.67;;;4.03;;
4742;SDS011;24293;48.154;7.748;2023-01-08T02:50:27;8.63;;;4.90;;
4742;SDS011;24293;48.154;7.748;2023-01-08T02:52:58;8.27;;;5.37;;
4742;SDS011;24293;48.154;7.748;2023-01-08T02:55:26;7.60;;;4.80;;
4742;SDS011;24293;48.154;7.748;2023-01-08T02:57:53;7.33;;;4.63;;
4742;SDS011;24293;48.154;7.748;2023-01-08T03:00:20;8.07;;;5.53;;
4742;SDS011;24293;48.154;7.748;2023-01-08T03:02:49;8.40;;;5.50;;
4742;SDS011;24293;48.154;7.748;2023-01-08T03:05:20;7.83;;;5.37;;
4742;SDS011;24293;48.154;7.748;2023-01-08T03:07:47;8.00;;;4.90;;
4742;SDS011;24293;48.154;7.748;2023-01-08T03:10:14;7.33;;;5.20;;
4742;SDS011;24293;48.154;7.748;2023-01-08T03:12:44;12.83;;;5.50;;
4742;SDS011;24293;48.154;7.748;2023-01-08T03:15:16;8.17;;;5.67;;
4742;SDS011;24293;48.154;7.748;2023-01-08T03:17:44;8.67;;;5.43;;
4742;SDS011;24293;48.154;7.748;2023-01-08T03:20:13;8.83;;;4.87;;
4742;SDS011;24293;48.154;7.748;2023-01-08T03:22:40;6.57;;;4.20;;
4742;SDS011;24293;48.154;7.748;2023-01-08T03:25:08;7.50;;;3.80;;
4742;SDS011;24293;48.154;7.748;2023-01-08T03:27:36;5.60;;;3.43;;
4742;SDS011;24293;48.154;7.748;2023-01-08T03:30:04;10.77;;;4.10;;
4742;SDS011;24293;48.154;7.748;2023-01-08T03:32:32;8.93;;;3.37;;
4742;SDS011;24293;48.154;7.748;2023-01-08T03:35:00;4.87;;;2.87;;
4742;SDS011;24293;48.154;7.748;2023-01-08T03:37:30;8.83;;;3.60;;
4742;SDS011;24293;48.154;7.748;2023-01-08T03:39:59;5.00;;;3.10;;
4742;SDS011;24293;48.154;7.748;2023-01-08T03:42:26;6.80;;;3.97;;
4742;SDS011;24293;48.154;7.748;2023-01-08T03:44:53;9.40;;;3.10;;
4742;SDS011;24293;48.154;7.748;2023-01-08T03:47:20;8.53;;;3.60;;
4742;SDS011;24293;48.154;7.748;2023-01-08T03:49:48;5.40;;;3.13;;
4742;SDS011;24293;48.154;7.748;2023-01-08T03:52:19;7.30;;;3.50;;
4742;SDS011;24293;48.154;7.748;2023-01-08T03:54:47;7.00;;;3.30;;
4742;SDS011;24293;48.154;7.748;2023-01-08T03:57:14;8.13;;;3.53;;
4742;SDS011;24293;48.154;7.748;2023-01-08T03:59:40;7.13;;;4.10;;
4742;SDS011;24293;48.154;7.748;2023-01-08T04:02:07;9.83;;;4.20;;
4742;SDS011;24293;48.154;7.748;2023-01-08T04:04:34;6.27;;;4.30;;
4742;SDS011;24293;48.154;7.748;2023-01-08T04:07:00;6.47;;;4.33;;
4742;SDS011;24293;48.154;7.748;2023-01-08T04:09:27;8.17;;;4.40;;
4742;SDS011;24293;48.154;7.748;2023-01-08T04:11:55;10.70;;;3.60;;
4742;SDS011;24293;48.154;7.748;2023-01-08T04:14:21;9.20;;;3.77;;
4742;SDS011;24293;48.154;7.748;2023-01-08T04:16:48;8.87;;;4.17;;
4742;SDS011;24293;48.154;7.748;2023-01-08T04:19:14;5.63;;;3.67;;
4742;SDS011;24293;48.154;7.748;2023-01-08T04:21:40;10.30;;;3.97;;
4742;SDS011;24293;48.154;7.748;2023-01-08T04:24:07;8.83;;;3.97;;
4742;SDS011;24293;48.154;7.748;2023-01-08T04:26:34;5.97;;;3.50;;
4742;SDS011;24293;48.154;7.748;2023-01-08T04:29:02;5.73;;;3.67;;
4742;SDS011;24293;48.154;7.748;2023-01-08T04:31:28;10.73;;;3.27;;
4742;SDS011;24293;48.154;7.748;2023-01-08T04:33:55;4.67;;;2.93;;
4742;SDS011;24293;48.154;7.748;2023-01-08T04:36:21;6.10;;;3.67;;
4742;SDS011;24293;48.154;7.748;2023-01-08T04:38:48;6.33;;;3.57;;
4742;SDS011;24293;48.154;7.748;2023-01-08T04:41:14;4.23;;;3.00;;
4742;SDS011;24293;48.154;7.748;2023-01-08T04:43:42;6.27;;;3.80;;
4742;SDS011;24293;48.154;7.748;2023-01-08T04:46:10;8.20;;;3.17;;
4742;SDS011;24293;48.154;7.748;2023-01-08T04:48:37;7.73;;;3.17;;
4742;SDS011;24293;48.154;7.748;2023-01-08T04:51:03;6.13;;;2.60;;
4742;SDS011;24293;48.154;7.748;2023-01-08T04:53:32;9.43;;;2.80;;
4742;SDS011;24293;48.154;7.748;2023-01-08T04:56:01;3.40;;;2.50;;
4742;SDS011;24293;48.154;7.748;2023-01-08T04:58:28;7.73;;;2.93;;
4742;SDS011;24293;48.154;7.748;2023-01-08T05:00:54;4.03;;;3.23;;
4742;SDS011;24293;48.154;7.748;2023-01-08T05:03:22;5.63;;;2.80;;
4742;SDS011;24293;48.154;7.748;2023-01-08T05:05:49;4.80;;;2.50;;
4742;SDS011;24293;48.154;7.748;2023-01-08T05:08:15;4.63;;;2.27;;
4742;SDS011;24293;48.154;7.748;2023-01-08T05:10:42;4.40;;;2.17;;
4742;SDS011;24293;48.154;7.748;2023-01-08T05:13:08;5.00;;;2.80;;
4742;SDS011;24293;48.154;7.748;2023-01-08T05:15:35;2.80;;;2.23;;
4742;SDS011;24293;48.154;7.748;2023-01-08T05:18:02;6.00;;;2.60;;
4742;SDS011;24293;48.154;7.748;2023-01-08T05:20:30;4.80;;;2.40;;
4742;SDS011;24293;48.154;7.748;2023-01-08T05:22:57;2.80;;;2.10;;
4742;SDS011;24293;48.154;7.748;2023-01-08T05:25:24;5.17;;;2.27;;
4742;SDS011;24293;48.154;7.748;2023-01-08T05:27:51;6.00;;;2.33;;
4742;SDS011;24293;48.154;7.748;2023-01-08T05:30:17;6.40;;;2.53;;
4742;SDS011;24293;48.154;7.748;2023-01-08T05:32:44;4.50;;;2.27;;
4742;SDS011;24293;48.154;7.748;2023-01-08T05:35:10;5.27;;;2.33;;
4742;SDS011;24293;48.154;7.748;2023-01-08T05:37:38;6.60;;;2.80;;
4742;SDS011;24293;48.154;7.748;2023-01-08T05:40:05;4.67;;;3.00;;
4742;SDS011;24293;48.154;7.748;2023-01-08T05:42:32;3.50;;;2.70;;
4742;SDS011;24293;48.154;7.748;2023-01-08T05:44:59;3.23;;;2.17;;
4742;SDS011;24293;48.154;7.748;2023-01-08T05:47:27;4.77;;;3.10;;
4742;SDS011;24293;48.154;7.748;2023-01-08T05:49:54;4.67;;;2.60;;
4742;SDS011;24293;48.154;7.748;2023-01-08T05:52:20;5.60;;;2.30;;
4742;SDS011;24293;48.154;7.748;2023-01-08T05:54:48;4.37;;;2.30;;
4742;SDS011;24293;48.154;7.748;2023-01-08T05:57:15;3.70;;;2.07;;
4742;SDS011;24293;48.154;7.748;2023-01-08T05:59:41;6.20;;;2.70;;
4742;SDS011;24293;48.154;7.748;2023-01-08T06:02:08;3.30;;;2.37;;
4742;SDS011;24293;48.154;7.748;2023-01-08T06:04:34;3.30;;;2.17;;
4742;SDS011;24293;48.154;7.748;2023-01-08T06:07:01;3.23;;;2.00;;
4742;SDS011;24293;48.154;7.748;2023-01-08T06:09:27;3.23;;;1.50;;
4742;SDS011;24293;48.154;7.748;2023-01-08T06:11:55;2.43;;;1.57;;
4742;SDS011;24293;48.154;7.748;2023-01-08T06:14:22;2.53;;;1.50;;
4742;SDS011;24293;48.154;7.748;2023-01-08T06:16:49;1.87;;;1.40;;
4742;SDS011;24293;48.154;7.748;2023-01-08T06:19:15;3.07;;;1.77;;
4742;SDS011;24293;48.154;7.748;2023-01-08T06:21:43;2.20;;;1.10;;
4742;SDS011;24293;48.154;7.748;2023-01-08T06:24:09;2.40;;;1.50;;
4742;SDS011;24293;48.154;7.748;2023-01-08T06:26:36;7.13;;;1.40;;
4742;SDS011;24293;48.154;7.748;2023-01-08T06:29:03;2.10;;;1.00;;
4742;SDS011;24293;48.154;7.748;2023-01-08T06:31:30;3.60;;;1.90;;
4742;SDS011;24293;48.154;7.748;2023-01-08T06:33:56;1.30;;;0.80;;
4742;SDS011;24293;48.154;7.748;2023-01-08T06:36:23;1.87;;;1.10;;
4742;SDS011;24293;48.154;7.748;2023-01-08T06:38:49;2.87;;;1.00;;
4742;SDS011;24293;48.154;7.748;2023-01-08T06:41:16;1.97;;;1.00;;
4742;SDS011;24293;48.154;7.748;2023-01-08T06:43:42;2.23;;;1.00;;
4742;SDS011;24293;48.154;7.748;2023-01-08T06:46:10;2.50;;;1.00;;
4742;SDS011;24293;48.154;7.748;2023-01-08T06:48:36;2.57;;;1.10;;
4742;SDS011;24293;48.154;7.748;2023-01-08T06:51:03;1.53;;;1.00;;
4742;SDS011;24293;48.154;7.748;2023-01-08T06:53:30;2.40;;;1.20;;
4742;SDS011;24293;48.154;7.748;2023-01-08T06:55:56;1.67;;;1.10;;
4742;SDS011;24293;48.154;7.748;2023-01-08T06:58:23;2.03;;;1.10;;
4742;SDS011;24293;48.154;7.748;2023-01-08T07:00:50;3.43;;;1.27;;
4742;SDS011;24293;48.154;7.748;2023-01-08T07:03:18;1.80;;;1.00;;
4742;SDS011;24293;48.154;7.748;2023-01-08T07:05:44;2.47;;;1.60;;
4742;SDS011;24293;48.154;7.748;2023-01-08T07:08:11;2.60;;;1.10;;
4742;SDS011;24293;48.154;7.748;2023-01-08T07:10:39;1.80;;;0.93;;
4742;SDS011;24293;48.154;7.748;2023-01-08T07:13:05;2.63;;;1.37;;
4742;SDS011;24293;48.154;7.748;2023-01-08T07:15:34;4.70;;;1.50;;
4742;SDS011;24293;48.154;7.748;2023-01-08T07:18:02;1.67;;;1.10;;
4742;SDS011;24293;48.154;7.748;2023-01-08T07:20:31;1.33;;;0.90;;
4742;SDS011;24293;48.154;7.748;2023-01-08T07:22:59;1.90;;;1.00;;
4742;SDS011;24293;48.154;7.748;2023-01-08T07:25:26;2.37;;;1.40;;
4742;SDS011;24293;48.154;7.748;2023-01-08T07:27:52;2.60;;;1.17;;
4742;SDS011;24293;48.154;7.748;2023-01-08T07:30:19;7.23;;;1.47;;
4742;SDS011;24293;48.154;7.748;2023-01-08T07:32:45;3.17;;;1.27;;
4742;SDS011;24293;48.154;7.748;2023-01-08T07:35:12;2.53;;;1.47;;
4742;SDS011;24293;48.154;7.748;2023-01-08T07:37:40;2.53;;;1.80;;
4742;SDS011;24293;48.154;7.748;2023-01-08T07:40:07;2.90;;;1.50;;
4742;SDS011;24293;48.154;7.748;2023-01-08T07:42:33;5.57;;;1.67;;
4742;SDS011;24293;48.154;7.748;2023-01-08T07:45:00;3.40;;;1.60;;
4742;SDS011;24293;48.154;7.748;2023-01-08T07:47:26;1.77;;;1.30;;
4742;SDS011;24293;48.154;7.748;2023-01-08T07:49:53;2.03;;;1.13;;
4742;SDS011;24293;48.154;7.748;2023-01-08T07:52:20;2.60;;;1.43;;
4742;SDS011;24293;48.154;7.748;2023-01-08T07:54:48;2.33;;;1.33;;
4742;SDS011;24293;48.154;7.748;2023-01-08T07:57:15;3.30;;;2.50;;
4742;SDS011;24293;48.154;7.748;2023-01-08T07:59:41;3.97;;;2.60;;
4742;SDS011;24293;48.154;7.748;2023-01-08T08:02:08;3.10;;;1.97;;
4742;SDS011;24293;48.154;7.748;2023-01-08T08:04:34;1.60;;;1.10;;
4742;SDS011;24293;48.154;7.748;2023-01-08T08:07:01;3.13;;;1.60;;
4742;SDS011;24293;48.154;7.748;2023-01-08T08:09:27;2.43;;;1.60;;
4742;SDS011;24293;48.154;7.748;2023-01-08T08:11:56;3.20;;;2.90;;
4742;SDS011;24293;48.154;7.748;2023-01-08T08:14:22;3.17;;;2.53;;
4742;SDS011;24293;48.154;7.748;2023-01-08T08:16:49;3.40;;;2.13;;
4742;SDS011;24293;48.154;7.748;2023-01-08T08:19:15;2.37;;;1.90;;
4742;SDS011;24293;48.154;7.748;2023-01-08T08:21:42;1.93;;;1.53;;
4742;SDS011;24293;48.154;7.748;2023-01-08T08:24:08;6.87;;;2.30;;
4742;SDS011;24293;48.154;7.748;2023-01-08T08:26:34;2.90;;;1.80;;
4742;SDS011;24293;48.154;7.748;2023-01-08T08:29:02;4.47;;;2.00;;
4742;SDS011;24293;48.154;7.748;2023-01-08T08:31:29;2.30;;;1.47;;
4742;SDS011;24293;48.154;7.748;2023-01-08T08:33:55;2.33;;;1.47;;
4742;SDS011;24293;48.154;7.748;2023-01-08T08:36:26;1.90;;;1.47;;
4742;SDS011;24293;48.154;7.748;2023-01-08T08:38:52;2.20;;;1.70;;
4742;SDS011;24293;48.154;7.748;2023-01-08T08:41:19;3.57;;;2.00;;
4742;SDS011;24293;48.154;7.748;2023-01-08T08:43:45;2.60;;;1.67;;
4742;SDS011;24293;48.154;7.748;2023-01-08T08:46:15;3.30;;;2.03;;
4742;SDS011;24293;48.154;7.748;2023-01-08T08:48:42;2.03;;;1.50;;
4742;SDS011;24293;48.154;7.748;2023-01-08T08:51:09;4.27;;;1.70;;
4742;SDS011;24293;48.154;7.748;2023-01-08T08:53:35;3.20;;;2.10;;
4742;SDS011;24293;48.154;7.748;2023-01-08T08:56:02;4.97;;;2.90;;
4742;SDS011;24293;48.154;7.748;2023-01-08T08:58:28;5.57;;;2.67;;
4742;SDS011;24293;48.154;7.748;2023-01-08T09:00:59;5.57;;;2.50;;
4742;SDS011;24293;48.154;7.748;2023-01-08T09:03:27;2.00;;;1.40;;
4742;SDS011;24293;48.154;7.748;2023-01-08T09:05:53;2.60;;;1.67;;
4742;SDS011;24293;48.154;7.748;2023-01-08T09:08:20;2.60;;;2.00;;
4742;SDS011;24293;48.154;7.748;2023-01-08T09:10:46;3.40;;;2.13;;
4742;SDS011;24293;48.154;7.748;2023-01-08T09:13:13;3.70;;;2.00;;
4742;SDS011;24293;48.154;7.748;2023-01-08T09:15:39;2.10;;;1.50;;
4742;SDS011;24293;48.154;7.748;2023-01-08T09:18:06;2.90;;;1.87;;
4742;SDS011;24293;48.154;7.748;2023-01-08T09:20:34;3.20;;;2.10;;
4742;SDS011;24293;48.154;7.748;2023-01-08T09:23:01;2.43;;;1.70;;
4742;SDS011;24293;48.154;7.748;2023-01-08T09:25:28;2.20;;;1.30;;
4742;SDS011;24293;48.154;7.748;2023-01-08T09:27:57;4.13;;;2.40;;
4742;SDS011;24293;48.154;7.748;2023-01-08T09:30:24;5.83;;;2.30;;
4742;SDS011;24293;48.154;7.748;2023-01-08T09:32:50;2.30;;;1.30;;
4742;SDS011;24293;48.154;7.748;2023-01-08T09:35:17;1.63;;;1.23;;
4742;SDS011;24293;48.154;7.748;2023-01-08T09:37:48;2.40;;;1.70;;
4742;SDS011;24293;48.154;7.748;2023-01-08T09:40:15;2.63;;;2.00;;
4742;SDS011;24293;48.154;7.748;2023-01-08T09:42:41;3.53;;;2.30;;
4742;SDS011;24293;48.154;7.748;2023-01-08T09:45:09;3.90;;;2.43;;
4742;SDS011;24293;48.154;7.748;2023-01-08T09:47:38;3.33;;;2.20;;
4742;SDS011;24293;48.154;7.748;2023-01-08T09:50:09;7.23;;;2.13;;
4742;SDS011;24293;48.154;7.748;2023-01-08T09:52:36;4.90;;;2.13;;
4742;SDS011;24293;48.154;7.748;2023-01-08T09:55:08;3.00;;;2.10;;
4742;SDS011;24293;48.154;7.748;2023-01-08T09:57:35;6.90;;;4.00;;
4742;SDS011;24293;48.154;7.748;2023-01-08T10:00:02;3.43;;;2.37;;
4742;SDS011;24293;48.154;7.748;2023-01-08T10:02:28;4.57;;;2.47;;
4742;SDS011;24293;48.154;7.748;2023-01-08T10:04:58;2.57;;;1.47;;
4742;SDS011;24293;48.154;7.748;2023-01-08T10:07:27;3.60;;;2.23;;
4742;SDS011;24293;48.154;7.748;2023-01-08T10:09:55;4.50;;;2.80;;
4742;SDS011;24293;48.154;7.748;2023-01-08T10:12:25;2.90;;;1.70;;
4742;SDS011;24293;48.154;7.748;2023-01-08T10:14:52;1.73;;;1.30;;
4742;SDS011;24293;48.154;7.748;2023-01-08T10:17:23;1.80;;;1.17;;
4742;SDS011;24293;48.154;7.748;2023-01-08T10:19:50;2.97;;;1.67;;
4742;SDS011;24293;48.154;7.748;2023-01-08T10:22:17;4.47;;;2.47;;
4742;SDS011;24293;48.154;7.748;2023-01-08T10:24:44;4.40;;;2.57;;
4742;SDS011;24293;48.154;7.748;2023-01-08T10:27:12;4.03;;;2.50;;
4742;SDS011;24293;48.154;7.748;2023-01-08T10:29:41;5.43;;;3.20;;
4742;SDS011;24293;48.154;7.748;2023-01-08T10:32:08;5.20;;;3.23;;
4742;SDS011;24293;48.154;7.748;2023-01-08T10:34:38;7.20;;;3.43;;
4742;SDS011;24293;48.154;7.748;2023-01-08T10:37:12;3.77;;;1.90;;
4742;SDS011;24293;48.154;7.748;2023-01-08T10:39:43;2.00;;;1.57;;
4742;SDS011;24293;48.154;7.748;2023-01-08T10:42:10;2.90;;;1.50;;
4742;SDS011;24293;48.154;7.748;2023-01-08T10:44:37;2.83;;;1.50;;
4742;SDS011;24293;48.154;7.748;2023-01-08T10:47:05;2.00;;;1.30;;
4742;SDS011;24293;48.154;7.748;2023-01-08T10:49:32;1.60;;;1.07;;
4742;SDS011;24293;48.154;7.748;2023-01-08T10:51:59;2.20;;;1.10;;
4742;SDS011;24293;48.154;7.748;2023-01-08T10:54:33;1.53;;;1.00;;
4742;SDS011;24293;48.154;7.748;2023-01-08T10:56:59;1.73;;;1.03;;
4742;SDS011;24293;48.154;7.748;2023-01-08T10:59:26;2.10;;;1.30;;
4742;SDS011;24293;48.154;7.748;2023-01-08T11:01:53;2.47;;;1.33;;
4742;SDS011;24293;48.154;7.748;2023-01-08T11:04:22;2.30;;;1.20;;
4742;SDS011;24293;48.154;7.748;2023-01-08T11:06:52;2.10;;;1.37;;
4742;SDS011;24293;48.154;7.748;2023-01-08T11:09:25;1.60;;;0.87;;
4742;SDS011;24293;48.154;7.748;2023-01-08T11:11:53;2.23;;;1.13;;
4742;SDS011;24293;48.154;7.748;2023-01-08T11:14:20;1.97;;;1.23;;
4742;SDS011;24293;48.154;7.748;2023-01-08T11:16:47;6.03;;;1.40;;
4742;SDS011;24293;48.154;7.748;2023-01-08T11:19:15;3.43;;;0.90;;
4742;SDS011;24293;48.154;7.748;2023-01-08T11:21:52;1.17;;;0.77;;
4742;SDS011;24293;48.154;7.748;2023-01-08T11:24:20;1.43;;;0.80;;
4742;SDS011;24293;48.154;7.748;2023-01-08T11:26:49;1.43;;;0.90;;
4742;SDS011;24293;48.154;7.748;2023-01-08T11:29:18;2.70;;;1.17;;
4742;SDS011;24293;48.154;7.748;2023-01-08T11:31:49;1.50;;;0.90;;
4742;SDS011;24293;48.154;7.748;2023-01-08T11:34:17;1.27;;;0.80;;
4742;SDS011;24293;48.154;7.748;2023-01-08T11:36:48;1.70;;;0.90;;
4742;SDS011;24293;48.154;7.748;2023-01-08T11:39:15;2.73;;;1.00;;
4742;SDS011;24293;48.154;7.748;2023-01-08T11:41:47;1.47;;;0.90;;
4742;SDS011;24293;48.154;7.748;2023-01-08T11:44:22;1.77;;;1.10;;
4742;SDS011;24293;48.154;7.748;2023-01-08T11:46:55;3.80;;;1.97;;
4742;SDS011;24293;48.154;7.748;2023-01-08T11:49:33;2.10;;;0.83;;
4742;SDS011;24293;48.154;7.748;2023-01-08T11:52:12;1.50;;;1.00;;
4742;SDS011;24293;48.154;7.748;2023-01-08T11:54:47;2.40;;;1.27;;
4742;SDS011;24293;48.154;7.748;2023-01-08T11:57:22;1.20;;;0.73;;
4742;SDS011;24293;48.154;7.748;2023-01-08T11:59:58;1.93;;;1.13;;
4742;SDS011;24293;48.154;7.748;2023-01-08T12:02:30;1.30;;;0.80;;
4742;SDS011;24293;48.154;7.748;2023-01-08T12:05:13;2.73;;;1.20;;
4742;SDS011;24293;48.154;7.748;2023-01-08T12:07:46;1.20;;;0.80;;
4742;SDS011;24293;48.154;7.748;2023-01-08T12:10:18;2.10;;;1.40;;
4742;SDS011;24293;48.154;7.748;2023-01-08T12:12:48;3.07;;;1.40;;
4742;SDS011;24293;48.154;7.748;2023-01-08T12:15:22;7.03;;;4.00;;
4742;SDS011;24293;48.154;7.748;2023-01-08T12:20:35;2.30;;;1.73;;
4742;SDS011;24293;48.154;7.748;2023-01-08T12:23:09;3.00;;;2.07;;
4742;SDS011;24293;48.154;7.748;2023-01-08T12:25:45;1.50;;;1.00;;
4742;SDS011;24293;48.154;7.748;2023-01-08T12:28:23;1.70;;;1.40;;
4742;SDS011;24293;48.154;7.748;2023-01-08T12:30:59;3.60;;;2.00;;
4742;SDS011;24293;48.154;7.748;2023-01-08T12:33:31;3.00;;;2.17;;
4742;SDS011;24293;48.154;7.748;2023-01-08T12:35:59;2.50;;;1.40;;
4742;SDS011;24293;48.154;7.748;2023-01-08T12:38:29;5.80;;;3.70;;
4742;SDS011;24293;48.154;7.748;2023-01-08T12:40:57;4.10;;;2.20;;
4742;SDS011;24293;48.154;7.748;2023-01-08T12:43:24;3.70;;;2.40;;
4742;SDS011;24293;48.154;7.748;2023-01-08T12:45:54;2.40;;;1.50;;
4742;SDS011;24293;48.154;7.748;2023-01-08T12:48:22;4.07;;;1.60;;
4742;SDS011;24293;48.154;7.748;2023-01-08T12:50:51;2.77;;;1.90;;
4742;SDS011;24293;48.154;7.748;2023-01-08T12:53:24;2.40;;;1.70;;
4742;SDS011;24293;48.154;7.748;2023-01-08T12:55:57;2.20;;;1.60;;
4742;SDS011;24293;48.154;7.748;2023-01-08T12:58:27;2.23;;;1.60;;
4742;SDS011;24293;48.154;7.748;2023-01-08T13:00:58;4.53;;;1.80;;
4742;SDS011;24293;48.154;7.748;2023-01-08T13:03:27;3.97;;;1.33;;
4742;SDS011;24293;48.154;7.748;2023-01-08T13:06:03;2.80;;;1.63;;
4742;SDS011;24293;48.154;7.748;2023-01-08T13:08:31;2.37;;;1.83;;
4742;SDS011;24293;48.154;7.748;2023-01-08T13:11:00;2.00;;;1.50;;
4742;SDS011;24293;48.154;7.748;2023-01-08T13:13:27;2.50;;;2.13;;
4742;SDS011;24293;48.154;7.748;2023-01-08T13:16:07;3.70;;;2.30;;
4742;SDS011;24293;48.154;7.748;2023-01-08T13:18:34;5.33;;;2.10;;
4742;SDS011;24293;48.154;7.748;2023-01-08T13:21:01;3.30;;;2.57;;
4742;SDS011;24293;48.154;7.748;2023-01-08T13:23:29;2.30;;;1.17;;
4742;SDS011;24293;48.154;7.748;2023-01-08T13:25:57;3.37;;;1.60;;
4742;SDS011;24293;48.154;7.748;2023-01-08T13:28:27;2.17;;;1.20;;
4742;SDS011;24293;48.154;7.748;2023-01-08T13:30:54;2.37;;;1.20;;
4742;SDS011;24293;48.154;7.748;2023-01-08T13:33:25;2.23;;;1.47;;
4742;SDS011;24293;48.154;7.748;2023-01-08T13:36:05;2.03;;;1.47;;
4742;SDS011;24293;48.154;7.748;2023-01-08T13:38:32;1.90;;;1.13;;
4742;SDS011;24293;48.154;7.748;2023-01-08T13:40:58;1.73;;;0.87;;
4742;SDS011;24293;48.154;7.748;2023-01-08T13:43:27;3.97;;;1.83;;
4742;SDS011;24293;48.154;7.748;2023-01-08T13:46:04;5.50;;;4.17;;
4742;SDS011;24293;48.154;7.748;2023-01-08T13:48:31;1.83;;;1.10;;
4742;SDS011;24293;48.154;7.748;2023-01-08T13:50:59;2.60;;;1.60;;
4742;SDS011;24293;48.154;7.748;2023-01-08T13:53:25;3.17;;;1.47;;
4742;SDS011;24293;48.154;7.748;2023-01-08T13:55:53;2.20;;;1.50;;
4742;SDS011;24293;48.154;7.748;2023-01-08T13:58:22;6.73;;;3.67;;
4742;SDS011;24293;48.154;7.748;2023-01-08T14:00:51;7.97;;;5.00;;
4742;SDS011;24293;48.154;7.748;2023-01-08T14:03:21;8.53;;;5.13;;
4742;SDS011;24293;48.154;7.748;2023-01-08T14:05:48;2.20;;;1.63;;
4742;SDS011;24293;48.154;7.748;2023-01-08T14:08:21;2.87;;;2.13;;
4742;SDS011;24293;48.154;7.748;2023-01-08T14:10:48;2.90;;;1.77;;
4742;SDS011;24293;48.154;7.748;2023-01-08T14:13:15;5.30;;;2.10;;
4742;SDS011;24293;48.154;7.748;2023-01-08T14:15:42;2.10;;;1.17;;
4742;SDS011;24293;48.154;7.748;2023-01-08T14:18:11;9.07;;;5.50;;
4742;SDS011;24293;48.154;7.748;2023-01-08T14:20:39;4.60;;;2.60;;
4742;SDS011;24293;48.154;7.748;2023-01-08T14:23:09;4.97;;;2.40;;
4742;SDS011;24293;48.154;7.748;2023-01-08T14:25:36;6.37;;;2.73;;
4742;SDS011;24293;48.154;7.748;2023-01-08T14:28:03;4.43;;;2.77;;
4742;SDS011;24293;48.154;7.748;2023-01-08T14:30:30;6.30;;;3.43;;
4742;SDS011;24293;48.154;7.748;2023-01-08T14:32:57;8.03;;;3.23;;
4742;SDS011;24293;48.154;7.748;2023-01-08T14:35:32;5.80;;;3.40;;
4742;SDS011;24293;48.154;7.748;2023-01-08T14:37:59;25.10;;;8.97;;
4742;SDS011;24293;48.154;7.748;2023-01-08T14:40:27;11.93;;;3.90;;
4742;SDS011;24293;48.154;7.748;2023-01-08T14:42:54;29.03;;;10.60;;
4742;SDS011;24293;48.154;7.748;2023-01-08T14:45:21;33.97;;;16.07;;
4742;SDS011;24293;48.154;7.748;2023-01-08T14:47:49;39.90;;;20.20;;
4742;SDS011;24293;48.154;7.748;2023-01-08T14:50:17;10.53;;;6.13;;
4742;SDS011;24293;48.154;7.748;2023-01-08T14:52:45;6.43;;;3.97;;
4742;SDS011;24293;48.154;7.748;2023-01-08T14:55:12;7.20;;;3.00;;
4742;SDS011;24293;48.154;7.748;2023-01-08T14:57:41;6.57;;;2.10;;
4742;SDS011;24293;48.154;7.748;2023-01-08T15:00:13;5.83;;;2.50;;
4742;SDS011;24293;48.154;7.748;2023-01-08T15:02:40;5.13;;;2.57;;
4742;SDS011;24293;48.154;7.748;2023-01-08T15:05:14;6.30;;;2.70;;
4742;SDS011;24293;48.154;7.748;2023-01-08T15:07:41;3.80;;;2.83;;
4742;SDS011;24293;48.154;7.748;2023-01-08T15:10:30;3.47;;;2.37;;